createdAt,value
2018-06-13T00:01:34.325Z,7.73
2018-06-13T00:04:01.985Z,8.40
2018-06-13T00:06:29.569Z,8.00
2018-06-13T00:08:57.099Z,7.43
2018-06-13T00:11:24.715Z,7.63
2018-06-13T00:13:52.245Z,7.57
2018-06-13T00:16:19.773Z,7.77
2018-06-13T00:18:47.373Z,8.83
2018-06-13T00:21:14.917Z,9.20
2018-06-13T00:23:42.441Z,7.40
2018-06-13T00:26:10.052Z,7.80
2018-06-13T00:28:37.586Z,7.63
2018-06-13T00:31:05.253Z,7.20
2018-06-13T00:33:32.909Z,6.70
2018-06-13T00:36:00.433Z,7.57
2018-06-13T00:38:28.004Z,8.00
2018-06-13T00:40:55.661Z,7.20
2018-06-13T00:43:23.221Z,8.27
2018-06-13T00:45:50.778Z,7.47
2018-06-13T00:48:18.389Z,7.27
2018-06-13T00:50:45.957Z,8.00
2018-06-13T00:53:13.489Z,8.70
2018-06-13T00:55:52.589Z,8.87
2018-06-13T00:58:20.164Z,8.70
2018-06-13T01:00:47.717Z,8.40
2018-06-13T01:03:15.285Z,8.00
2018-06-13T01:05:42.862Z,7.73
2018-06-13T01:08:10.431Z,7.80
2018-06-13T01:10:38.090Z,8.17
2018-06-13T01:13:05.756Z,8.20
2018-06-13T01:15:33.325Z,9.37
2018-06-13T01:18:00.912Z,8.03
2018-06-13T01:20:28.452Z,7.43
2018-06-13T01:22:55.993Z,8.60
2018-06-13T01:25:23.670Z,8.60
2018-06-13T01:27:51.221Z,8.17
2018-06-13T01:30:18.825Z,7.90
2018-06-13T01:32:46.518Z,8.50
2018-06-13T01:35:14.085Z,8.70
2018-06-13T01:37:41.615Z,8.57
2018-06-13T01:40:09.234Z,9.30
2018-06-13T01:42:36.755Z,8.73
2018-06-13T01:45:04.482Z,8.50
2018-06-13T01:47:32.051Z,8.87
2018-06-13T01:49:59.624Z,8.40
2018-06-13T01:52:27.240Z,9.27
2018-06-13T01:54:54.849Z,8.10
2018-06-13T01:57:22.421Z,9.70
2018-06-13T01:59:49.959Z,8.23
2018-06-13T02:02:17.571Z,8.37
2018-06-13T02:04:45.127Z,8.23
2018-06-13T02:07:12.663Z,8.00
2018-06-13T02:09:40.249Z,7.63
2018-06-13T02:12:08.237Z,8.70
2018-06-13T02:14:35.801Z,8.80
2018-06-13T02:17:03.437Z,8.57
2018-06-13T02:19:30.973Z,8.40
2018-06-13T02:21:58.525Z,7.97
2018-06-13T02:24:26.089Z,9.37
2018-06-13T02:26:54.540Z,8.63
2018-06-13T02:29:22.257Z,8.77
2018-06-13T02:31:49.834Z,9.37
2018-06-13T02:34:17.404Z,8.80
2018-06-13T02:36:44.983Z,9.57
2018-06-13T02:39:12.551Z,8.37
2018-06-13T02:41:40.088Z,8.60
2018-06-13T02:44:07.589Z,8.77
2018-06-13T02:46:35.215Z,7.97
2018-06-13T02:49:02.954Z,8.30
2018-06-13T02:51:30.494Z,7.40
2018-06-13T02:53:58.126Z,7.33
2018-06-13T02:56:25.666Z,6.57
2018-06-13T02:58:53.183Z,7.00
2018-06-13T03:01:20.782Z,5.70
2018-06-13T03:03:48.376Z,6.73
2018-06-13T03:06:15.898Z,5.13
2018-06-13T03:08:43.485Z,5.30
2018-06-13T03:11:11.022Z,4.67
2018-06-13T03:13:38.629Z,4.30
2018-06-13T03:16:06.189Z,4.27
2018-06-13T03:18:33.754Z,3.70
2018-06-13T03:21:01.289Z,4.63
2018-06-13T03:23:29.170Z,3.67
2018-06-13T03:25:56.669Z,3.83
2018-06-13T03:28:24.242Z,3.40
2018-06-13T03:30:51.788Z,3.30
2018-06-13T03:33:19.453Z,2.97
2018-06-13T03:35:46.990Z,2.70
2018-06-13T03:38:14.550Z,3.20
2018-06-13T03:40:42.152Z,3.13
2018-06-13T03:43:09.734Z,3.13
2018-06-13T03:45:37.350Z,3.17
2018-06-13T03:48:04.914Z,3.03
2018-06-13T03:50:32.474Z,3.03
2018-06-13T03:53:00.087Z,3.53
2018-06-13T03:55:27.747Z,3.27
2018-06-13T03:57:55.325Z,2.80
2018-06-13T04:00:22.900Z,3.10
2018-06-13T04:02:50.417Z,3.00
2018-06-13T04:05:18.044Z,3.20
2018-06-13T04:07:45.657Z,3.10
2018-06-13T04:10:13.327Z,2.83
2018-06-13T04:12:40.937Z,2.73
2018-06-13T04:15:08.527Z,3.30
2018-06-13T04:17:36.072Z,3.50
2018-06-13T04:20:03.708Z,3.50
2018-06-13T04:22:31.409Z,4.00
2018-06-13T04:24:58.916Z,3.03
2018-06-13T04:27:26.779Z,4.20
2018-06-13T04:29:54.571Z,3.77
2018-06-13T04:32:22.149Z,3.73
2018-06-13T04:34:49.669Z,3.60
2018-06-13T04:37:17.392Z,2.83
2018-06-13T04:39:45.240Z,4.23
2018-06-13T04:42:12.861Z,3.40
2018-06-13T04:44:40.510Z,4.30
2018-06-13T04:47:08.175Z,4.30
2018-06-13T04:49:35.734Z,4.00
2018-06-13T04:52:03.322Z,3.80
2018-06-13T04:54:30.882Z,3.83
2018-06-13T04:56:58.599Z,4.03
2018-06-13T04:59:26.265Z,4.50
2018-06-13T05:01:53.901Z,4.60
2018-06-13T05:04:21.519Z,4.93
2018-06-13T05:06:49.119Z,4.10
2018-06-13T05:09:16.693Z,6.33
2018-06-13T05:11:44.294Z,5.20
2018-06-13T05:14:11.883Z,4.20
2018-06-13T05:16:39.499Z,3.83
2018-06-13T05:19:07.074Z,3.10
2018-06-13T05:21:34.926Z,3.60
2018-06-13T05:24:02.683Z,3.33
2018-06-13T05:26:30.358Z,3.73
2018-06-13T05:28:57.947Z,3.03
2018-06-13T05:31:25.476Z,2.93
2018-06-13T05:33:53.288Z,2.77
2018-06-13T05:36:20.873Z,3.93
2018-06-13T05:38:48.419Z,3.00
2018-06-13T05:41:16.481Z,4.67
2018-06-13T05:43:44.169Z,3.70
2018-06-13T05:46:11.823Z,4.17
2018-06-13T05:48:39.411Z,4.30
2018-06-13T05:51:06.949Z,3.90
2018-06-13T05:53:34.561Z,4.17
2018-06-13T05:56:02.485Z,3.90
2018-06-13T05:58:30.239Z,4.00
2018-06-13T06:00:57.881Z,3.73
2018-06-13T06:03:25.465Z,3.43
2018-06-13T06:05:53.065Z,3.70
2018-06-13T06:08:20.985Z,3.40
2018-06-13T06:10:48.633Z,4.03
2018-06-13T06:13:16.284Z,4.47
2018-06-13T06:15:44.024Z,4.50
2018-06-13T06:18:11.927Z,3.70
2018-06-13T06:20:39.577Z,4.10
2018-06-13T06:23:07.114Z,5.13
2018-06-13T06:25:34.682Z,3.93
2018-06-13T06:28:02.258Z,3.60
2018-06-13T06:30:29.844Z,3.97
2018-06-13T06:32:57.409Z,4.57
2018-06-13T06:35:25.020Z,4.03
2018-06-13T06:37:52.592Z,3.80
2018-06-13T06:40:20.162Z,3.10
2018-06-13T06:42:47.841Z,3.87
2018-06-13T06:45:15.437Z,3.20
2018-06-13T06:47:43.008Z,2.97
2018-06-13T06:50:10.856Z,4.20
2018-06-13T06:52:38.479Z,4.17
2018-06-13T06:55:06.070Z,4.27
2018-06-13T06:57:33.608Z,4.47
2018-06-13T07:00:01.306Z,4.47
2018-06-13T07:02:28.866Z,3.53
2018-06-13T07:04:56.456Z,5.00
2018-06-13T07:07:24.028Z,3.73
2018-06-13T07:09:51.824Z,4.73
2018-06-13T07:12:19.928Z,5.03
2018-06-13T07:14:47.519Z,3.90
2018-06-13T07:17:15.227Z,5.67
2018-06-13T07:19:42.914Z,4.13
2018-06-13T07:22:10.837Z,3.70
2018-06-13T07:24:38.454Z,3.93
2018-06-13T07:27:06.221Z,3.30
2018-06-13T07:29:33.777Z,3.90
2018-06-13T07:32:01.349Z,4.50
2018-06-13T07:34:29.033Z,4.10
2018-06-13T07:36:56.596Z,3.33
2018-06-13T07:39:24.149Z,4.33
2018-06-13T07:41:51.727Z,20.97
2018-06-13T07:44:19.276Z,3.97
2018-06-13T07:46:47.049Z,5.00
2018-06-13T07:49:14.656Z,3.90
2018-06-13T07:51:42.287Z,3.70
2018-06-13T07:54:09.859Z,4.20
2018-06-13T07:56:37.613Z,4.87
2018-06-13T07:59:05.485Z,6.63
2018-06-13T08:01:33.219Z,3.40
2018-06-13T08:04:00.857Z,4.50
2018-06-13T08:06:28.461Z,3.30
2018-06-13T08:08:56.195Z,3.40
2018-06-13T08:11:23.765Z,3.43
2018-06-13T08:13:51.657Z,3.20
2018-06-13T08:16:19.269Z,5.53
2018-06-13T08:18:46.858Z,3.13
2018-06-13T08:21:14.690Z,3.03
2018-06-13T08:23:42.371Z,3.20
2018-06-13T08:26:10.106Z,3.20
2018-06-13T08:28:37.616Z,3.17
2018-06-13T08:31:05.256Z,3.47
2018-06-13T08:33:32.873Z,4.50
2018-06-13T08:36:00.491Z,3.40
2018-06-13T08:38:28.105Z,4.17
2018-06-13T08:40:55.697Z,3.93
2018-06-13T08:43:23.309Z,4.40
2018-06-13T08:45:51.309Z,4.77
2018-06-13T08:48:18.993Z,5.67
2018-06-13T08:50:46.557Z,3.67
2018-06-13T08:53:14.105Z,3.47
2018-06-13T08:55:41.921Z,3.50
2018-06-13T08:58:09.495Z,3.67
2018-06-13T09:00:37.336Z,6.40
2018-06-13T09:03:05.048Z,3.63
2018-06-13T09:05:32.793Z,5.23
2018-06-13T09:08:00.374Z,4.37
2018-06-13T09:10:28.027Z,3.60
2018-06-13T09:12:55.572Z,4.37
2018-06-13T09:15:23.094Z,4.80
2018-06-13T09:17:50.738Z,3.90
2018-06-13T09:20:18.462Z,4.37
2018-06-13T09:22:46.324Z,2.97
2018-06-13T09:25:14.112Z,3.23
2018-06-13T09:27:41.907Z,3.00
2018-06-13T09:30:09.506Z,3.13
2018-06-13T09:32:37.159Z,2.30
2018-06-13T09:35:04.824Z,2.40
2018-06-13T09:37:32.400Z,2.70
2018-06-13T09:40:00.055Z,2.57
2018-06-13T09:42:27.612Z,3.20
2018-06-13T09:44:55.154Z,2.20
2018-06-13T09:47:23.456Z,3.23
2018-06-13T09:49:50.339Z,2.27
2018-06-13T09:52:17.927Z,2.57
2018-06-13T09:54:45.552Z,2.43
2018-06-13T09:57:13.114Z,3.10
2018-06-13T09:59:46.288Z,3.20
2018-06-13T10:02:16.757Z,2.50
2018-06-13T10:04:44.770Z,2.30
2018-06-13T10:07:12.318Z,4.57
2018-06-13T10:09:39.938Z,3.00
2018-06-13T10:12:07.766Z,2.60
2018-06-13T10:14:35.486Z,2.97
2018-06-13T10:17:03.182Z,4.53
2018-06-13T10:19:30.736Z,3.20
2018-06-13T10:21:58.333Z,2.10
2018-06-13T10:24:25.909Z,2.00
2018-06-13T10:26:53.453Z,2.40
2018-06-13T10:29:21.052Z,2.67
2018-06-13T10:31:48.591Z,2.80
2018-06-13T10:34:16.103Z,3.90
2018-06-13T10:36:43.650Z,3.37
2018-06-13T10:39:11.211Z,3.40
2018-06-13T10:41:38.760Z,2.93
2018-06-13T10:44:06.333Z,3.07
2018-06-13T10:46:33.885Z,2.40
2018-06-13T10:49:01.434Z,3.10
2018-06-13T10:51:29.002Z,3.70
2018-06-13T10:53:56.635Z,2.80
2018-06-13T10:56:24.195Z,2.10
2018-06-13T10:58:51.753Z,3.33
2018-06-13T11:01:19.293Z,2.17
2018-06-13T11:03:46.829Z,2.93
2018-06-13T11:06:14.405Z,2.20
2018-06-13T11:08:41.962Z,3.13
2018-06-13T11:11:09.493Z,3.60
2018-06-13T11:13:37.122Z,2.40
2018-06-13T11:16:04.669Z,3.07
2018-06-13T11:18:32.277Z,2.50
2018-06-13T11:20:59.904Z,2.43
2018-06-13T11:23:27.453Z,2.70
2018-06-13T11:25:55.042Z,3.00
2018-06-13T11:28:22.602Z,3.10
2018-06-13T11:30:50.336Z,4.97
2018-06-13T11:33:17.922Z,2.90
2018-06-13T11:35:45.488Z,2.73
2018-06-13T11:38:13.088Z,3.80
2018-06-13T11:40:40.714Z,2.33
2018-06-13T11:43:10.300Z,3.00
2018-06-13T11:45:37.875Z,3.37
2018-06-13T11:48:05.681Z,3.03
2018-06-13T11:50:33.190Z,2.53
2018-06-13T11:53:00.738Z,2.47
2018-06-13T11:55:28.320Z,4.00
2018-06-13T11:57:55.970Z,2.50
2018-06-13T12:00:23.701Z,2.30
2018-06-13T12:02:51.278Z,2.00
2018-06-13T12:05:18.880Z,2.10
2018-06-13T12:07:46.490Z,2.33
2018-06-13T12:10:14.038Z,4.07
2018-06-13T12:12:41.684Z,3.23
2018-06-13T12:15:09.226Z,3.10
2018-06-13T12:17:36.782Z,3.00
2018-06-13T12:20:04.454Z,3.20
2018-06-13T12:22:32.041Z,3.33
2018-06-13T12:24:59.564Z,3.13
2018-06-13T12:27:27.258Z,2.60
2018-06-13T12:29:54.878Z,2.97
2018-06-13T12:32:22.450Z,2.37
2018-06-13T12:34:50.061Z,7.63
2018-06-13T12:37:17.610Z,3.70
2018-06-13T12:39:45.158Z,3.00
2018-06-13T12:42:12.772Z,2.93
2018-06-13T12:44:40.330Z,2.43
2018-06-13T12:47:07.918Z,2.50
2018-06-13T12:49:35.446Z,2.33
2018-06-13T12:52:03.165Z,2.03
2018-06-13T12:54:30.681Z,2.07
2018-06-13T12:56:58.299Z,2.40
2018-06-13T12:59:25.874Z,2.87
2018-06-13T13:01:53.428Z,3.00
2018-06-13T13:04:21.047Z,3.13
2018-06-13T13:06:48.631Z,2.60
2018-06-13T13:09:16.198Z,2.70
2018-06-13T13:11:43.978Z,2.33
2018-06-13T13:14:11.937Z,2.10
2018-06-13T13:16:39.569Z,2.70
2018-06-13T13:19:07.160Z,1.90
2018-06-13T13:21:34.893Z,2.00
2018-06-13T13:24:02.641Z,1.87
2018-06-13T13:26:30.208Z,2.20
2018-06-13T13:28:57.933Z,1.97
2018-06-13T13:31:25.588Z,2.30
2018-06-13T13:33:53.266Z,2.50
2018-06-13T13:36:20.908Z,2.33
2018-06-13T13:38:48.549Z,2.27
2018-06-13T13:41:16.241Z,2.40
2018-06-13T13:43:43.795Z,2.43
2018-06-13T13:46:11.494Z,2.10
2018-06-13T13:48:39.083Z,2.40
2018-06-13T13:51:06.669Z,1.83
2018-06-13T13:53:34.197Z,1.40
2018-06-13T13:56:01.780Z,3.17
2018-06-13T13:58:29.329Z,2.20
2018-06-13T14:00:56.861Z,2.13
2018-06-13T14:03:24.449Z,3.00
2018-06-13T14:05:51.945Z,1.43
2018-06-13T14:08:19.691Z,1.70
2018-06-13T14:10:47.321Z,2.00
2018-06-13T14:13:14.887Z,2.43
2018-06-13T14:15:42.469Z,1.97
2018-06-13T14:18:10.041Z,2.10
2018-06-13T14:20:37.744Z,2.13
2018-06-13T14:23:05.325Z,3.00
2018-06-13T14:25:32.901Z,2.57
2018-06-13T14:28:00.469Z,2.30
2018-06-13T14:30:28.045Z,2.60
2018-06-13T14:32:55.635Z,2.57
2018-06-13T14:35:23.219Z,3.00
2018-06-13T14:37:50.747Z,2.40
2018-06-13T14:40:18.373Z,2.63
2018-06-13T14:42:45.917Z,3.57
2018-06-13T14:45:13.672Z,2.73
2018-06-13T14:47:41.264Z,4.20
2018-06-13T14:50:09.071Z,3.43
2018-06-13T14:52:36.619Z,2.87
2018-06-13T14:55:04.237Z,3.33
2018-06-13T14:57:31.990Z,2.90
2018-06-13T14:59:59.577Z,3.17
2018-06-13T15:02:27.169Z,3.27
2018-06-13T15:04:54.743Z,3.70
2018-06-13T15:07:22.328Z,2.60
2018-06-13T15:09:49.961Z,2.50
2018-06-13T15:12:17.619Z,2.70
2018-06-13T15:14:45.203Z,3.10
2018-06-13T15:17:12.881Z,3.30
2018-06-13T15:19:40.495Z,2.80
2018-06-13T15:22:08.336Z,2.70
2018-06-13T15:24:35.918Z,2.80
2018-06-13T15:27:03.568Z,3.03
2018-06-13T15:29:31.173Z,3.07
2018-06-13T15:31:58.795Z,3.10
2018-06-13T15:34:26.585Z,3.47
2018-06-13T15:36:54.219Z,2.43
2018-06-13T15:39:21.832Z,3.07
2018-06-13T15:41:49.432Z,3.47
2018-06-13T15:44:17.081Z,3.40
2018-06-13T15:46:44.777Z,3.70
2018-06-13T15:49:12.364Z,2.80
2018-06-13T15:51:39.970Z,3.70
2018-06-13T15:54:07.699Z,3.50
2018-06-13T15:56:35.272Z,3.40
2018-06-13T15:59:02.948Z,3.30
2018-06-13T16:01:31.025Z,3.40
2018-06-13T16:03:58.614Z,3.80
2018-06-13T16:06:26.186Z,3.47
2018-06-13T16:08:53.742Z,3.70
2018-06-13T16:11:21.398Z,3.27
2018-06-13T16:13:49.056Z,4.03
2018-06-13T16:16:16.762Z,3.93
2018-06-13T16:18:44.390Z,4.43
2018-06-13T16:21:11.980Z,3.80
2018-06-13T16:23:39.626Z,3.70
2018-06-13T16:26:07.236Z,3.00
2018-06-13T16:28:34.812Z,3.70
2018-06-13T16:31:02.516Z,3.90
2018-06-13T16:33:30.098Z,3.23
2018-06-13T16:35:57.682Z,3.30
2018-06-13T16:38:25.350Z,3.97
2018-06-13T16:40:52.934Z,3.93
2018-06-13T16:43:20.642Z,3.10
2018-06-13T16:45:48.379Z,4.07
2018-06-13T16:48:15.978Z,3.70
2018-06-13T16:50:51.957Z,3.60
2018-06-13T16:53:31.102Z,3.30
2018-06-13T16:55:59.046Z,3.13
2018-06-13T16:58:26.725Z,3.00
2018-06-13T17:00:54.317Z,3.40
2018-06-13T17:03:22.474Z,3.30
2018-06-13T17:05:50.090Z,4.37
2018-06-13T17:08:17.692Z,2.90
2018-06-13T17:10:45.319Z,4.00
2018-06-13T17:13:12.895Z,5.87
2018-06-13T17:15:40.474Z,3.00
2018-06-13T17:18:08.211Z,2.90
2018-06-13T17:20:35.832Z,5.10
2018-06-13T17:23:03.450Z,3.70
2018-06-13T17:25:31.182Z,3.40
2018-06-13T17:27:58.782Z,3.50
2018-06-13T17:30:26.386Z,4.60
2018-06-13T17:32:54.002Z,4.20
2018-06-13T17:35:21.625Z,3.67
2018-06-13T17:37:49.230Z,3.47
2018-06-13T17:40:16.845Z,3.80
2018-06-13T17:42:44.438Z,3.00
2018-06-13T17:45:12.046Z,6.30
2018-06-13T17:47:39.670Z,5.70
2018-06-13T17:50:07.234Z,3.80
2018-06-13T17:52:34.906Z,8.93
2018-06-13T17:55:02.554Z,5.20
2018-06-13T17:57:30.104Z,4.97
2018-06-13T17:59:57.712Z,6.63
2018-06-13T18:02:25.334Z,3.23
2018-06-13T18:04:52.902Z,3.10
2018-06-13T18:07:20.492Z,2.60
2018-06-13T18:09:48.098Z,2.80
2018-06-13T18:12:15.787Z,2.30
2018-06-13T18:14:43.319Z,2.20
2018-06-13T18:17:10.912Z,2.40
2018-06-13T18:19:38.618Z,3.10
2018-06-13T18:22:06.262Z,2.33
2018-06-13T18:24:34.024Z,2.80
2018-06-13T18:27:01.557Z,2.30
2018-06-13T18:29:29.103Z,2.10
2018-06-13T18:31:56.686Z,2.10
2018-06-13T18:34:24.278Z,2.20
2018-06-13T18:36:51.969Z,2.20
2018-06-13T18:39:19.557Z,2.70
2018-06-13T18:41:47.178Z,2.10
2018-06-13T18:44:14.788Z,2.33
2018-06-13T18:46:42.420Z,2.33
2018-06-13T18:49:10.117Z,2.23
2018-06-13T18:51:37.706Z,3.90
2018-06-13T18:54:05.592Z,4.10
2018-06-13T18:56:33.156Z,4.73
2018-06-13T18:59:00.733Z,2.90
2018-06-13T19:01:28.326Z,2.30
2018-06-13T19:03:55.922Z,2.67
2018-06-13T19:06:23.427Z,2.57
2018-06-13T19:08:51.076Z,2.37
2018-06-13T19:11:19.118Z,2.40
2018-06-13T19:13:46.799Z,3.13
2018-06-13T19:16:15.020Z,2.70
2018-06-13T19:18:42.583Z,2.67
2018-06-13T19:21:10.174Z,2.60
2018-06-13T19:23:37.829Z,2.40
2018-06-13T19:26:05.458Z,3.70
2018-06-13T19:28:33.448Z,2.93
2018-06-13T19:31:01.094Z,3.73
2018-06-13T19:33:28.609Z,3.60
2018-06-13T19:35:56.134Z,4.13
2018-06-13T19:38:23.763Z,3.20
2018-06-13T19:40:51.307Z,3.87
2018-06-13T19:43:24.593Z,3.27
2018-06-13T19:45:52.287Z,3.33
2018-06-13T19:48:25.673Z,3.10
2018-06-13T19:50:53.223Z,3.17
2018-06-13T19:53:26.610Z,3.00
2018-06-13T19:56:00.046Z,3.30
2018-06-13T19:58:27.717Z,3.30
2018-06-13T20:00:55.307Z,3.23
2018-06-13T20:03:28.593Z,3.73
2018-06-13T20:05:56.130Z,3.80
2018-06-13T20:08:23.704Z,3.90
2018-06-13T20:10:51.322Z,3.00
2018-06-13T20:13:24.602Z,3.47
2018-06-13T20:15:58.000Z,4.17
2018-06-13T20:18:31.374Z,3.90
2018-06-13T20:20:59.153Z,3.90
2018-06-13T20:23:26.741Z,3.20
2018-06-13T20:26:00.052Z,3.77
2018-06-13T20:28:33.268Z,3.90
2018-06-13T20:31:06.785Z,4.20
2018-06-13T20:33:34.913Z,4.37
2018-06-13T20:36:04.018Z,4.90
2018-06-13T20:38:31.839Z,4.47
2018-06-13T20:40:59.470Z,3.73
2018-06-13T20:43:27.078Z,4.30
2018-06-13T20:45:54.746Z,5.13
2018-06-13T20:48:22.337Z,4.70
2018-06-13T20:50:49.946Z,4.53
2018-06-13T20:53:17.615Z,4.70
2018-06-13T20:55:45.173Z,4.33
2018-06-13T20:58:12.727Z,4.50
2018-06-13T21:00:40.526Z,4.70
2018-06-13T21:03:08.129Z,4.27
2018-06-13T21:05:35.722Z,3.90
2018-06-13T21:08:03.401Z,4.67
2018-06-13T21:10:30.952Z,4.40
2018-06-13T21:12:58.535Z,4.43
2018-06-13T21:15:26.105Z,4.40
2018-06-13T21:17:53.679Z,4.87
2018-06-13T21:20:21.300Z,4.63
2018-06-13T21:22:49.336Z,4.43
2018-06-13T21:25:16.944Z,5.03
2018-06-13T21:27:44.692Z,4.50
2018-06-13T21:30:12.558Z,5.83
2018-06-13T21:32:40.629Z,5.00
2018-06-13T21:35:08.380Z,4.47
2018-06-13T21:37:35.962Z,5.40
2018-06-13T21:40:03.647Z,4.73
2018-06-13T21:42:31.216Z,4.63
2018-06-13T21:44:59.120Z,5.00
2018-06-13T21:47:27.019Z,5.00
2018-06-13T21:49:54.608Z,5.40
2018-06-13T21:52:22.292Z,5.03
2018-06-13T21:54:49.852Z,5.53
2018-06-13T21:57:17.423Z,5.00
2018-06-13T21:59:45.293Z,5.10
2018-06-13T22:02:13.004Z,5.13
2018-06-13T22:04:40.591Z,5.17
2018-06-13T22:07:08.197Z,4.93
2018-06-13T22:09:35.999Z,4.80
2018-06-13T22:12:03.575Z,4.70
2018-06-13T22:14:31.146Z,4.60
2018-06-13T22:16:58.717Z,5.20
2018-06-13T22:19:26.307Z,4.83
2018-06-13T22:21:53.949Z,4.80
2018-06-13T22:24:21.534Z,5.17
2018-06-13T22:26:49.139Z,5.83
2018-06-13T22:29:16.765Z,4.80
2018-06-13T22:31:44.334Z,4.80
2018-06-13T22:34:11.891Z,5.20
2018-06-13T22:36:39.495Z,5.17
2018-06-13T22:39:09.785Z,5.50
2018-06-13T22:41:37.465Z,4.97
2018-06-13T22:44:05.249Z,5.13
2018-06-13T22:46:32.972Z,5.90
2018-06-13T22:49:00.600Z,5.10
2018-06-13T22:51:28.551Z,5.20
2018-06-13T22:53:56.103Z,4.67
2018-06-13T22:56:23.824Z,5.80
2018-06-13T22:58:51.456Z,5.20
2018-06-13T23:01:19.026Z,5.73
2018-06-13T23:03:46.642Z,5.47
2018-06-13T23:06:14.254Z,5.57
2018-06-13T23:08:41.850Z,6.00
2018-06-13T23:11:09.387Z,4.80
2018-06-13T23:13:37.506Z,5.60
2018-06-13T23:16:05.106Z,5.60
2018-06-13T23:18:32.680Z,6.23
2018-06-13T23:21:00.277Z,5.50
2018-06-13T23:23:27.898Z,5.73
2018-06-13T23:25:56.015Z,5.80
2018-06-13T23:28:23.838Z,5.10
2018-06-13T23:30:51.538Z,5.70
2018-06-13T23:33:19.122Z,4.97
2018-06-13T23:35:46.721Z,5.70
2018-06-13T23:38:14.655Z,5.90
2018-06-13T23:40:42.245Z,5.17
2018-06-13T23:43:09.908Z,5.43
2018-06-13T23:45:37.546Z,5.37
2018-06-13T23:48:05.103Z,5.23
2018-06-13T23:50:32.713Z,5.13
2018-06-13T23:53:00.270Z,5.17
2018-06-13T23:55:28.220Z,4.83
2018-06-13T23:57:55.812Z,5.17
